createdAt,value
2023-04-07T00:01:54.940Z,4.90
2023-04-07T00:04:23.547Z,5.37
2023-04-07T00:06:52.043Z,5.23
2023-04-07T00:09:21.754Z,5.20
2023-04-07T00:11:50.101Z,5.00
2023-04-07T00:14:18.488Z,5.53
2023-04-07T00:16:46.794Z,5.60
2023-04-07T00:19:15.084Z,5.70
2023-04-07T00:21:43.358Z,5.10
2023-04-07T00:24:14.437Z,5.50
2023-04-07T00:26:46.169Z,4.63
2023-04-07T00:29:14.516Z,5.43
2023-04-07T00:31:42.947Z,5.47
2023-04-07T00:34:11.600Z,6.10
2023-04-07T00:36:39.838Z,6.00
2023-04-07T00:39:08.215Z,5.67
2023-04-07T00:41:37.444Z,6.33
2023-04-07T00:44:07.193Z,5.40
2023-04-07T00:46:35.578Z,5.90
2023-04-07T00:49:03.897Z,5.50
2023-04-07T00:51:32.794Z,5.43
2023-04-07T00:54:01.117Z,6.13
2023-04-07T00:56:29.666Z,6.20
2023-04-07T00:58:58.000Z,6.50
2023-04-07T01:01:29.647Z,6.30
2023-04-07T01:04:00.209Z,5.80
2023-04-07T01:06:32.378Z,5.67
2023-04-07T01:09:04.394Z,5.80
2023-04-07T01:11:34.609Z,6.03
2023-04-07T01:14:03.065Z,5.67
2023-04-07T01:16:37.105Z,5.97
2023-04-07T01:19:11.215Z,5.30
2023-04-07T01:21:40.506Z,6.17
2023-04-07T01:24:26.869Z,5.23
2023-04-07T01:26:59.953Z,6.50
2023-04-07T01:29:32.428Z,5.77
2023-04-07T01:32:01.972Z,5.70
2023-04-07T01:34:31.993Z,6.00
2023-04-07T01:37:01.218Z,5.90
2023-04-07T01:39:29.854Z,5.80
2023-04-07T01:42:02.287Z,5.87
2023-04-07T01:44:32.238Z,4.90
2023-04-07T01:47:01.519Z,5.53
2023-04-07T01:49:30.687Z,5.20
2023-04-07T01:51:59.248Z,4.73
2023-04-07T01:54:28.195Z,5.30
2023-04-07T01:56:56.971Z,5.10
2023-04-07T01:59:25.450Z,4.50
2023-04-07T02:01:55.297Z,4.47
2023-04-07T02:04:26.457Z,4.90
2023-04-07T02:06:56.390Z,5.13
2023-04-07T02:09:26.029Z,4.77
2023-04-07T02:11:56.155Z,4.90
2023-04-07T02:14:24.953Z,4.20
2023-04-07T02:16:55.487Z,5.00
2023-04-07T02:19:24.969Z,4.97
2023-04-07T02:21:53.475Z,5.07
2023-04-07T02:24:22.819Z,4.80
2023-04-07T02:26:51.168Z,5.27
2023-04-07T02:29:19.622Z,5.03
2023-04-07T02:31:47.917Z,5.03
2023-04-07T02:34:17.717Z,4.80
2023-04-07T02:36:46.170Z,4.80
2023-04-07T02:39:14.601Z,4.23
2023-04-07T02:41:42.865Z,5.37
2023-04-07T02:44:11.251Z,4.70
2023-04-07T02:46:39.510Z,4.90
2023-04-07T02:49:07.943Z,4.50
2023-04-07T02:51:37.868Z,4.40
2023-04-07T02:54:06.215Z,4.47
2023-04-07T02:56:34.712Z,4.63
2023-04-07T02:59:03.070Z,4.43
2023-04-07T03:01:31.670Z,4.70
2023-04-07T03:04:00.411Z,4.47
2023-04-07T03:06:28.763Z,4.27
2023-04-07T03:08:58.443Z,4.40
2023-04-07T03:11:27.214Z,5.27
2023-04-07T03:13:55.483Z,5.50
2023-04-07T03:16:23.809Z,4.97
2023-04-07T03:18:52.116Z,4.87
2023-04-07T03:21:20.423Z,4.40
2023-04-07T03:23:48.734Z,4.60
2023-04-07T03:26:18.425Z,5.23
2023-04-07T03:28:46.727Z,4.70
2023-04-07T03:31:15.133Z,4.47
2023-04-07T03:33:43.675Z,4.70
2023-04-07T03:36:12.227Z,4.37
2023-04-07T03:38:40.883Z,4.27
2023-04-07T03:41:09.238Z,4.27
2023-04-07T03:43:38.973Z,5.10
2023-04-07T03:46:07.338Z,4.90
2023-04-07T03:48:35.635Z,4.10
2023-04-07T03:51:03.984Z,4.33
2023-04-07T03:53:32.383Z,4.50
2023-04-07T03:56:01.066Z,4.60
2023-04-07T03:58:29.471Z,4.47
2023-04-07T04:00:59.232Z,4.57
2023-04-07T04:03:27.686Z,4.50
2023-04-07T04:05:56.026Z,4.93
2023-04-07T04:08:24.366Z,4.60
2023-04-07T04:10:52.759Z,4.67
2023-04-07T04:13:21.318Z,4.03
2023-04-07T04:15:49.720Z,4.87
2023-04-07T04:18:19.445Z,4.70
2023-04-07T04:20:48.156Z,4.27
2023-04-07T04:23:16.534Z,4.30
2023-04-07T04:25:44.915Z,3.07
2023-04-07T04:28:13.292Z,4.10
2023-04-07T04:30:41.605Z,5.03
2023-04-07T04:33:10.029Z,4.70
2023-04-07T04:35:39.693Z,4.80
2023-04-07T04:38:07.961Z,4.77
2023-04-07T04:40:36.175Z,4.87
2023-04-07T04:43:07.057Z,5.13
2023-04-07T04:45:35.615Z,5.10
2023-04-07T04:48:04.059Z,5.30
2023-04-07T04:50:32.337Z,5.17
2023-04-07T04:53:02.335Z,5.37
2023-04-07T04:55:30.547Z,5.97
2023-04-07T04:57:59.033Z,5.17
2023-04-07T05:00:27.301Z,5.90
2023-04-07T05:02:55.724Z,5.20
2023-04-07T05:05:24.327Z,5.97
2023-04-07T05:07:52.651Z,5.73
2023-04-07T05:10:22.302Z,5.70
2023-04-07T05:12:50.955Z,5.47
2023-04-07T05:15:19.401Z,5.73
2023-04-07T05:17:50.464Z,5.93
2023-04-07T05:20:19.258Z,5.27
2023-04-07T05:22:47.634Z,5.77
2023-04-07T05:25:15.984Z,5.77
2023-04-07T05:27:45.729Z,5.53
2023-04-07T05:30:14.441Z,5.70
2023-04-07T05:32:42.818Z,5.37
2023-04-07T05:35:11.547Z,6.80
2023-04-07T05:37:39.890Z,6.07
2023-04-07T05:40:08.858Z,5.53
2023-04-07T05:42:37.208Z,5.50
2023-04-07T05:45:07.257Z,6.70
2023-04-07T05:47:35.689Z,6.10
2023-04-07T05:50:04.094Z,6.53
2023-04-07T05:52:32.459Z,5.50
2023-04-07T05:55:00.981Z,5.40
2023-04-07T05:57:29.380Z,6.23
2023-04-07T05:59:57.797Z,6.60
2023-04-07T06:02:27.586Z,5.80
2023-04-07T06:04:56.315Z,5.20
2023-04-07T06:07:24.785Z,5.73
2023-04-07T06:09:53.148Z,6.10
2023-04-07T06:12:21.525Z,6.40
2023-04-07T06:14:56.158Z,5.63
2023-04-07T06:17:24.840Z,5.53
2023-04-07T06:19:54.577Z,5.97
2023-04-07T06:22:22.815Z,5.70
2023-04-07T06:24:51.104Z,6.50
2023-04-07T06:27:19.436Z,6.13
2023-04-07T06:29:47.763Z,6.10
2023-04-07T06:32:17.097Z,6.60
2023-04-07T06:34:45.435Z,6.27
2023-04-07T06:37:16.917Z,5.47
2023-04-07T06:39:45.811Z,6.23
2023-04-07T06:42:14.182Z,6.10
2023-04-07T06:44:42.570Z,5.60
2023-04-07T06:47:11.558Z,5.83
2023-04-07T06:49:39.809Z,6.37
2023-04-07T06:52:08.061Z,6.17
2023-04-07T06:54:37.639Z,6.53
2023-04-07T06:57:11.847Z,6.17
2023-04-07T06:59:40.389Z,5.70
2023-04-07T07:02:09.445Z,6.20
2023-04-07T07:04:37.939Z,5.23
2023-04-07T07:07:07.501Z,5.50
2023-04-07T07:09:35.982Z,6.67
2023-04-07T07:12:06.403Z,10.20
2023-04-07T07:14:34.748Z,5.63
2023-04-07T07:17:03.542Z,5.53
2023-04-07T07:19:31.942Z,5.40
2023-04-07T07:22:00.378Z,5.30
2023-04-07T07:24:29.322Z,6.30
2023-04-07T07:26:57.827Z,6.47
2023-04-07T07:29:27.614Z,5.50
2023-04-07T07:31:56.318Z,6.40
2023-04-07T07:34:24.835Z,5.40
2023-04-07T07:36:53.127Z,6.17
2023-04-07T07:39:21.466Z,5.63
2023-04-07T07:41:50.721Z,6.20
2023-04-07T07:44:20.184Z,6.00
2023-04-07T07:46:49.880Z,5.97
2023-04-07T07:49:18.125Z,5.73
2023-04-07T07:51:47.193Z,5.67
2023-04-07T07:54:15.802Z,6.10
2023-04-07T07:56:44.186Z,5.70
2023-04-07T07:59:12.495Z,5.50
2023-04-07T08:01:41.040Z,5.73
2023-04-07T08:04:11.057Z,6.20
2023-04-07T08:06:39.627Z,6.00
2023-04-07T08:09:07.960Z,6.00
2023-04-07T08:11:36.238Z,5.80
2023-04-07T08:14:04.625Z,5.87
2023-04-07T08:16:33.015Z,6.40
2023-04-07T08:19:01.421Z,5.67
2023-04-07T08:21:31.729Z,5.93
2023-04-07T08:24:01.006Z,6.60
2023-04-07T08:26:29.327Z,5.80
2023-04-07T08:28:58.564Z,5.70
2023-04-07T08:31:27.669Z,5.80
2023-04-07T08:33:58.346Z,7.90
2023-04-07T08:36:28.063Z,6.27
2023-04-07T08:38:59.018Z,5.63
2023-04-07T08:41:30.957Z,5.70
2023-04-07T08:43:59.698Z,6.70
2023-04-07T08:46:28.409Z,6.37
2023-04-07T08:48:57.841Z,6.23
2023-04-07T08:51:31.737Z,5.77
2023-04-07T08:54:05.886Z,6.00
2023-04-07T08:56:34.300Z,5.67
2023-04-07T08:59:03.386Z,5.10
2023-04-07T09:01:32.532Z,5.30
2023-04-07T09:04:01.855Z,5.10
2023-04-07T09:06:31.979Z,5.27
2023-04-07T09:09:01.801Z,5.63
2023-04-07T09:11:30.708Z,4.97
2023-04-07T09:13:59.856Z,5.10
2023-04-07T09:16:31.026Z,5.77
2023-04-07T09:18:59.699Z,4.57
2023-04-07T09:21:28.161Z,4.80
2023-04-07T09:23:56.486Z,4.90
2023-04-07T09:26:27.210Z,5.00
2023-04-07T09:28:56.604Z,4.47
2023-04-07T09:31:26.359Z,5.10
2023-04-07T09:33:55.530Z,4.87
2023-04-07T09:36:24.752Z,4.90
2023-04-07T09:38:53.621Z,5.33
2023-04-07T09:41:22.150Z,5.53
2023-04-07T09:43:59.056Z,5.60
2023-04-07T09:46:28.119Z,5.57
2023-04-07T09:49:05.057Z,5.27
2023-04-07T09:51:34.609Z,5.17
2023-04-07T09:54:02.985Z,5.57
2023-04-07T09:56:31.523Z,4.70
2023-04-07T09:59:01.929Z,5.60
2023-04-07T10:01:30.353Z,5.10
2023-04-07T10:03:59.002Z,4.60
2023-04-07T10:06:28.110Z,5.03
2023-04-07T10:08:56.545Z,5.23
2023-04-07T10:11:24.920Z,5.50
2023-04-07T10:13:53.678Z,5.67
2023-04-07T10:16:24.751Z,6.20
2023-04-07T10:18:53.131Z,5.53
2023-04-07T10:21:21.529Z,5.90
2023-04-07T10:23:53.843Z,6.00
2023-04-07T10:26:25.493Z,5.30
2023-04-07T10:28:57.392Z,5.60
2023-04-07T10:31:27.373Z,5.83
2023-04-07T10:33:57.104Z,5.23
2023-04-07T10:36:26.032Z,5.70
2023-04-07T10:39:15.479Z,4.57
2023-04-07T10:41:43.913Z,5.27
2023-04-07T10:44:32.466Z,4.90
2023-04-07T10:47:06.292Z,5.67
2023-04-07T10:49:35.128Z,5.07
2023-04-07T10:52:22.194Z,5.37
2023-04-07T10:55:04.333Z,4.90
2023-04-07T10:57:33.073Z,4.73
2023-04-07T11:00:17.889Z,4.83
2023-04-07T11:02:47.903Z,4.90
2023-04-07T11:05:23.561Z,5.33
2023-04-07T11:07:54.985Z,5.20
2023-04-07T11:10:23.473Z,5.07
2023-04-07T11:13:01.581Z,5.10
2023-04-07T11:15:30.067Z,5.33
2023-04-07T11:18:13.518Z,4.80
2023-04-07T11:20:46.118Z,5.17
2023-04-07T11:23:14.817Z,4.50
2023-04-07T11:25:44.152Z,4.90
2023-04-07T11:28:13.373Z,5.03
2023-04-07T11:30:46.651Z,5.70
2023-04-07T11:33:19.835Z,5.10
2023-04-07T11:35:51.913Z,5.00
2023-04-07T11:38:21.137Z,4.80
2023-04-07T11:40:49.569Z,5.43
2023-04-07T11:43:18.515Z,4.77
2023-04-07T11:45:47.013Z,4.33
2023-04-07T11:48:33.481Z,4.83
2023-04-07T11:51:02.161Z,4.63
2023-04-07T11:53:30.978Z,4.20
2023-04-07T11:56:03.342Z,4.20
2023-04-07T11:58:31.997Z,4.53
2023-04-07T12:01:05.256Z,5.00
2023-04-07T12:03:35.297Z,4.60
2023-04-07T12:06:04.024Z,5.37
2023-04-07T12:08:42.106Z,4.53
2023-04-07T12:11:11.111Z,4.77
2023-04-07T12:13:39.753Z,5.30
2023-04-07T12:16:08.254Z,5.50
2023-04-07T12:18:38.229Z,5.20
2023-04-07T12:21:06.718Z,5.30
2023-04-07T12:23:35.033Z,5.03
2023-04-07T12:26:03.459Z,5.10
2023-04-07T12:28:31.872Z,5.70
2023-04-07T12:31:00.245Z,4.90
2023-04-07T12:33:28.553Z,5.47
2023-04-07T12:35:58.652Z,5.03
2023-04-07T12:38:27.095Z,5.37
2023-04-07T12:40:55.410Z,4.60
2023-04-07T12:43:23.638Z,5.30
2023-04-07T12:45:52.026Z,5.13
2023-04-07T12:48:20.353Z,4.80
2023-04-07T12:50:48.777Z,4.70
2023-04-07T12:53:18.477Z,5.30
2023-04-07T12:55:48.980Z,5.53
2023-04-07T12:58:18.535Z,5.50
2023-04-07T13:00:47.778Z,4.80
2023-04-07T13:03:16.278Z,5.10
2023-04-07T13:05:44.617Z,5.20
2023-04-07T13:08:13.141Z,5.10
2023-04-07T13:10:42.934Z,4.80
2023-04-07T13:13:11.297Z,5.03
2023-04-07T13:15:39.696Z,4.67
2023-04-07T13:18:08.220Z,5.43
2023-04-07T13:20:36.573Z,4.77
2023-04-07T13:23:08.107Z,5.43
2023-04-07T13:25:37.957Z,5.70
2023-04-07T13:28:07.718Z,5.37
2023-04-07T13:30:36.336Z,5.47
2023-04-07T13:33:04.881Z,5.20
2023-04-07T13:35:36.043Z,5.77
2023-04-07T13:38:04.465Z,5.60
2023-04-07T13:40:32.938Z,4.97
2023-04-07T13:43:01.590Z,6.17
2023-04-07T13:45:31.340Z,5.77
2023-04-07T13:47:59.717Z,6.23
2023-04-07T13:50:28.212Z,6.53
2023-04-07T13:52:56.528Z,6.63
2023-04-07T13:55:24.849Z,7.07
2023-04-07T13:57:53.154Z,6.23
2023-04-07T14:00:21.862Z,6.47
2023-04-07T14:02:51.581Z,6.13
2023-04-07T14:05:19.966Z,6.57
2023-04-07T14:07:48.640Z,6.17
2023-04-07T14:10:17.044Z,6.17
2023-04-07T14:12:45.371Z,6.60
2023-04-07T14:15:13.775Z,6.77
2023-04-07T14:17:42.448Z,7.10
2023-04-07T14:20:12.458Z,6.77
2023-04-07T14:22:40.829Z,6.90
2023-04-07T14:25:09.748Z,7.30
2023-04-07T14:27:38.151Z,7.33
2023-04-07T14:30:07.048Z,7.10
2023-04-07T14:32:35.467Z,7.23
2023-04-07T14:35:03.818Z,7.33
2023-04-07T14:37:33.586Z,7.30
2023-04-07T14:40:03.299Z,8.40
2023-04-07T14:42:31.880Z,8.70
2023-04-07T14:45:01.743Z,7.90
2023-04-07T14:47:30.469Z,7.30
2023-04-07T14:49:58.868Z,7.40
2023-04-07T14:52:27.547Z,7.23
2023-04-07T14:54:59.668Z,8.00
2023-04-07T14:57:28.702Z,7.00
2023-04-07T14:59:57.034Z,8.40
2023-04-07T15:02:25.478Z,7.70
2023-04-07T15:04:53.914Z,8.00
2023-04-07T15:07:22.286Z,6.87
2023-04-07T15:09:50.572Z,6.90
2023-04-07T15:12:20.367Z,7.40
2023-04-07T15:14:48.669Z,7.53
2023-04-07T15:17:17.072Z,6.40
2023-04-07T15:19:45.594Z,7.10
2023-04-07T15:22:13.896Z,7.40
2023-04-07T15:24:42.350Z,6.97
2023-04-07T15:27:12.010Z,6.77
2023-04-07T15:29:42.239Z,7.90
2023-04-07T15:32:10.584Z,6.20
2023-04-07T15:34:38.892Z,7.37
2023-04-07T15:37:07.475Z,7.30
2023-04-07T15:39:35.848Z,7.90
2023-04-07T15:42:04.231Z,7.80
2023-04-07T15:44:39.537Z,7.43
2023-04-07T15:47:09.489Z,8.57
2023-04-07T15:49:38.867Z,7.50
2023-04-07T15:52:07.451Z,7.20
2023-04-07T15:54:35.897Z,7.07
2023-04-07T15:57:04.212Z,6.87
2023-04-07T15:59:32.550Z,6.17
2023-04-07T16:02:01.255Z,6.83
2023-04-07T16:04:31.146Z,6.40
2023-04-07T16:06:59.510Z,5.40
2023-04-07T16:09:28.589Z,4.80
2023-04-07T16:11:56.952Z,5.23
2023-04-07T16:14:28.802Z,5.07
2023-04-07T16:16:59.149Z,5.00
2023-04-07T16:19:27.776Z,5.57
2023-04-07T16:21:57.433Z,4.73
2023-04-07T16:24:25.742Z,5.33
2023-04-07T16:26:55.758Z,4.90
2023-04-07T16:29:24.087Z,5.03
2023-04-07T16:31:52.604Z,5.40
2023-04-07T16:34:21.137Z,5.80
2023-04-07T16:36:50.324Z,6.33
2023-04-07T16:39:20.057Z,6.50
2023-04-07T16:41:48.328Z,6.27
2023-04-07T16:44:16.620Z,5.90
2023-04-07T16:46:45.003Z,5.40
2023-04-07T16:49:13.268Z,5.40
2023-04-07T16:51:41.615Z,6.63
2023-04-07T16:54:09.920Z,7.10
2023-04-07T16:56:39.762Z,9.50
2023-04-07T16:59:08.305Z,9.77
2023-04-07T17:01:39.596Z,8.60
2023-04-07T17:04:09.927Z,7.90
2023-04-07T17:06:38.237Z,7.70
2023-04-07T17:09:06.535Z,6.33
2023-04-07T17:11:35.260Z,6.10
2023-04-07T17:14:04.990Z,6.63
2023-04-07T17:16:33.339Z,5.90
2023-04-07T17:19:01.787Z,6.33
2023-04-07T17:21:31.239Z,6.47
2023-04-07T17:23:59.600Z,6.13
2023-04-07T17:26:27.938Z,6.50
2023-04-07T17:28:56.436Z,6.63
2023-04-07T17:31:26.211Z,6.10
2023-04-07T17:33:54.734Z,6.60
2023-04-07T17:36:23.085Z,6.43
2023-04-07T17:38:51.455Z,5.80
2023-04-07T17:41:21.223Z,6.20
2023-04-07T17:43:49.703Z,6.67
2023-04-07T17:46:18.190Z,6.50
2023-04-07T17:48:48.768Z,6.40
2023-04-07T17:51:17.040Z,6.27
2023-04-07T17:53:45.528Z,6.30
2023-04-07T17:56:13.803Z,6.30
2023-04-07T17:58:42.237Z,6.73
2023-04-07T18:01:10.899Z,7.10
2023-04-07T18:03:39.518Z,7.70
2023-04-07T18:06:09.698Z,10.70
2023-04-07T18:08:38.707Z,7.37
2023-04-07T18:11:07.354Z,8.23
2023-04-07T18:13:35.688Z,6.30
2023-04-07T18:16:07.853Z,7.00
2023-04-07T18:18:36.322Z,8.43
2023-04-07T18:21:04.683Z,7.50
2023-04-07T18:23:34.377Z,8.57
2023-04-07T18:26:04.731Z,8.47
2023-04-07T18:28:33.185Z,7.37
2023-04-07T18:31:02.393Z,6.67
2023-04-07T18:33:32.952Z,6.93
2023-04-07T18:36:02.022Z,7.57
2023-04-07T18:38:30.725Z,6.40
2023-04-07T18:41:00.707Z,7.90
2023-04-07T18:43:29.116Z,7.17
2023-04-07T18:45:57.603Z,7.10
2023-04-07T18:48:26.407Z,7.77
2023-04-07T18:50:55.482Z,6.30
2023-04-07T18:53:24.184Z,6.40
2023-04-07T18:55:52.791Z,6.10
2023-04-07T18:58:22.572Z,5.90
2023-04-07T19:00:52.946Z,5.30
2023-04-07T19:03:21.785Z,6.37
2023-04-07T19:05:52.607Z,6.10
2023-04-07T19:08:21.204Z,6.43
2023-04-07T19:10:50.955Z,6.10
2023-04-07T19:13:19.581Z,6.40
2023-04-07T19:15:49.280Z,6.57
2023-04-07T19:18:17.586Z,6.00
2023-04-07T19:20:45.961Z,5.40
2023-04-07T19:23:14.491Z,5.60
2023-04-07T19:25:45.027Z,5.50
2023-04-07T19:28:14.088Z,5.50
2023-04-07T19:30:42.447Z,5.50
2023-04-07T19:33:12.776Z,5.57
2023-04-07T19:35:41.330Z,5.23
2023-04-07T19:38:09.791Z,5.30
2023-04-07T19:40:38.290Z,4.60
2023-04-07T19:43:07.306Z,5.23
2023-04-07T19:45:35.696Z,5.60
2023-04-07T19:48:04.104Z,4.43
2023-04-07T19:50:36.606Z,5.50
2023-04-07T19:53:04.960Z,4.67
2023-04-07T19:55:33.369Z,4.43
2023-04-07T19:58:01.656Z,4.60
2023-04-07T20:00:30.661Z,4.47
2023-04-07T20:03:00.392Z,4.70
2023-04-07T20:05:28.798Z,4.47
2023-04-07T20:07:58.539Z,5.00
2023-04-07T20:10:26.852Z,5.03
2023-04-07T20:12:55.233Z,5.37
2023-04-07T20:15:24.698Z,5.23
2023-04-07T20:17:53.169Z,4.80
2023-04-07T20:20:22.360Z,4.97
2023-04-07T20:22:51.011Z,5.00
2023-04-07T20:25:20.883Z,4.73
2023-04-07T20:27:50.342Z,4.87
2023-04-07T20:30:18.770Z,5.50
2023-04-07T20:32:47.161Z,4.83
2023-04-07T20:35:15.872Z,5.17
2023-04-07T20:37:44.606Z,5.77
2023-04-07T20:40:13.513Z,5.30
2023-04-07T20:42:43.179Z,5.60
2023-04-07T20:45:12.511Z,5.80
2023-04-07T20:47:40.915Z,5.93
2023-04-07T20:50:09.957Z,5.70
2023-04-07T20:52:40.293Z,6.77
2023-04-07T20:55:09.126Z,4.80
2023-04-07T20:57:37.443Z,4.33
2023-04-07T21:00:07.898Z,5.17
2023-04-07T21:02:36.662Z,5.00
2023-04-07T21:05:04.992Z,4.70
2023-04-07T21:07:33.243Z,5.50
2023-04-07T21:10:01.658Z,7.07
2023-04-07T21:12:30.048Z,7.53
2023-04-07T21:14:58.409Z,6.50
2023-04-07T21:17:28.100Z,7.43
2023-04-07T21:19:56.326Z,5.53
2023-04-07T21:22:24.825Z,6.23
2023-04-07T21:24:55.096Z,6.90
2023-04-07T21:27:25.165Z,6.77
2023-04-07T21:29:53.558Z,6.87
2023-04-07T21:32:22.120Z,6.40
2023-04-07T21:34:54.590Z,6.63
2023-04-07T21:37:23.541Z,6.57
2023-04-07T21:39:54.338Z,6.50
2023-04-07T21:42:23.103Z,6.50
2023-04-07T21:44:51.865Z,6.50
2023-04-07T21:47:20.705Z,6.73
2023-04-07T21:49:49.033Z,6.47
2023-04-07T21:52:19.260Z,6.93
2023-04-07T21:54:47.691Z,6.23
2023-04-07T21:57:16.111Z,9.00
2023-04-07T21:59:44.396Z,8.33
2023-04-07T22:02:13.532Z,8.27
2023-04-07T22:04:42.094Z,8.50
2023-04-07T22:07:10.503Z,7.80
2023-04-07T22:09:40.522Z,6.73
2023-04-07T22:12:08.901Z,6.93
2023-04-07T22:14:37.327Z,6.63
2023-04-07T22:17:05.740Z,6.60
2023-04-07T22:19:34.097Z,5.43
2023-04-07T22:22:02.530Z,6.60
2023-04-07T22:24:30.916Z,6.70
2023-04-07T22:27:01.578Z,7.17
2023-04-07T22:29:30.058Z,6.00
2023-04-07T22:31:58.489Z,7.17
2023-04-07T22:34:26.867Z,7.10
2023-04-07T22:36:55.342Z,7.90
2023-04-07T22:39:23.631Z,7.80
2023-04-07T22:41:51.979Z,7.80
2023-04-07T22:44:21.616Z,7.03
2023-04-07T22:46:50.058Z,6.90
2023-04-07T22:49:18.573Z,6.80
2023-04-07T22:51:48.623Z,6.90
2023-04-07T22:54:17.212Z,7.27
2023-04-07T22:56:45.993Z,7.00
2023-04-07T22:59:14.364Z,6.57
2023-04-07T23:01:44.113Z,6.63
2023-04-07T23:04:12.468Z,6.07
2023-04-07T23:06:43.524Z,6.93
2023-04-07T23:09:12.100Z,6.90
2023-04-07T23:11:40.894Z,6.43
2023-04-07T23:14:09.336Z,6.50
2023-04-07T23:16:37.567Z,7.00
2023-04-07T23:19:07.301Z,6.60
2023-04-07T23:21:35.665Z,7.63
2023-04-07T23:24:04.059Z,6.30
2023-04-07T23:26:32.697Z,7.13
2023-04-07T23:29:01.033Z,6.47
2023-04-07T23:31:29.559Z,7.30
2023-04-07T23:33:57.940Z,6.80
2023-04-07T23:36:28.029Z,6.23
2023-04-07T23:38:56.947Z,6.53
2023-04-07T23:41:25.453Z,6.63
2023-04-07T23:43:53.744Z,6.90
2023-04-07T23:46:22.341Z,6.17
2023-04-07T23:48:51.059Z,5.70
2023-04-07T23:51:19.524Z,6.00
2023-04-07T23:53:49.197Z,5.50
2023-04-07T23:56:17.508Z,6.90
2023-04-07T23:58:45.815Z,6.03
